Time;durP1;ratioP1;P1;durP2;ratioP2;P2;SDS_P1;SDS_P2;PMS_P1;PMS_P2;Temp;Humidity;BMP_temperature;BMP_pressure;BME280_temperature;BME280_humidity;BME280_pressure;Samples;Min_cycle;Max_cycle;Signal;HPM_P1;HPM_P2
2023/05/31 00:02:21;;;;;;;7.32;6.63;;;15.60;79.80;;;;;;5043739;28;20426;-73
2023/05/31 00:04:48;;;;;;;8.30;6.90;;;15.60;80.20;;;;;;5046446;28;20421;-72
2023/05/31 00:07:16;;;;;;;7.53;6.45;;;15.50;80.10;;;;;;5045451;28;20531;-75
2023/05/31 00:09:42;;;;;;;7.25;6.55;;;15.50;80.30;;;;;;5046735;28;20512;-73
2023/05/31 00:12:09;;;;;;;7.70;6.90;;;15.50;80.00;;;;;;5045592;28;20420;-73
2023/05/31 00:14:36;;;;;;;8.07;7.27;;;15.40;80.50;;;;;;5041950;28;20489;-73
2023/05/31 00:17:03;;;;;;;7.60;6.90;;;15.40;80.50;;;;;;5042602;28;20448;-73
2023/05/31 00:19:30;;;;;;;8.52;7.70;;;15.30;80.90;;;;;;5044323;28;20425;-73
2023/05/31 00:21:56;;;;;;;7.60;6.90;;;15.30;80.90;;;;;;5044745;28;20425;-73
2023/05/31 00:24:24;;;;;;;7.40;6.50;;;15.30;80.70;;;;;;5044296;28;20464;-71
2023/05/31 00:26:51;;;;;;;8.40;7.20;;;15.20;81.00;;;;;;5043057;28;20898;-74
2023/05/31 00:29:18;;;;;;;8.37;7.30;;;15.20;81.30;;;;;;5044056;28;20424;-74
2023/05/31 00:31:45;;;;;;;8.93;7.40;;;15.20;81.50;;;;;;5043632;28;21066;-72
2023/05/31 00:34:12;;;;;;;9.00;6.80;;;15.20;81.50;;;;;;5043662;28;20424;-73
2023/05/31 00:36:38;;;;;;;8.00;7.20;;;15.20;81.80;;;;;;5042805;28;20896;-73
2023/05/31 00:39:05;;;;;;;6.75;6.05;;;15.20;82.10;;;;;;5044545;28;20409;-72
2023/05/31 00:41:33;;;;;;;9.30;7.25;;;15.10;82.20;;;;;;5044825;28;20444;-72
2023/05/31 00:44:00;;;;;;;9.75;7.30;;;15.10;82.60;;;;;;5045265;28;20912;-72
2023/05/31 00:46:29;;;;;;;7.63;6.60;;;15.10;82.90;;;;;;5041249;28;20528;-72
2023/05/31 00:48:56;;;;;;;7.20;6.50;;;15.10;83.10;;;;;;5042719;28;20445;-73
2023/05/31 00:51:24;;;;;;;7.55;6.75;;;15.10;83.20;;;;;;5043526;28;20409;-73
2023/05/31 00:53:52;;;;;;;7.18;6.47;;;15.10;83.20;;;;;;5043771;28;20743;-73
2023/05/31 00:56:21;;;;;;;8.18;6.43;;;15.10;83.40;;;;;;5045658;28;20441;-74
2023/05/31 00:58:50;;;;;;;8.27;7.23;;;15.10;83.50;;;;;;5047505;28;20452;-74
2023/05/31 01:01:18;;;;;;;9.25;7.00;;;15.00;83.80;;;;;;5045876;28;20515;-73
2023/05/31 01:03:44;;;;;;;7.50;6.70;;;15.00;83.90;;;;;;5047402;28;20448;-74
2023/05/31 01:06:11;;;;;;;8.27;7.47;;;15.00;83.90;;;;;;5045872;28;20532;-74
2023/05/31 01:08:39;;;;;;;7.57;6.80;;;14.90;83.50;;;;;;5047600;28;20960;-74
2023/05/31 01:11:13;;;;;;;8.00;6.80;;;14.90;83.80;;;;;;5047567;28;20448;-74
2023/05/31 01:13:52;;;;;;;7.28;6.57;;;14.80;84.10;;;;;;5047922;28;20955;-74
2023/05/31 01:16:27;;;;;;;7.45;6.65;;;14.70;84.60;;;;;;5046247;28;20440;-74
2023/05/31 01:19:02;;;;;;;7.63;6.80;;;14.70;84.10;;;;;;5048140;28;20651;-73
2023/05/31 01:21:38;;;;;;;7.20;6.50;;;14.60;84.10;;;;;;5047365;28;20489;-75
2023/05/31 01:24:23;;;;;;;8.68;7.22;;;14.50;85.10;;;;;;5046534;28;20413;-75
2023/05/31 01:26:55;;;;;;;7.80;7.10;;;14.50;85.40;;;;;;5045181;28;20429;-75
2023/05/31 01:29:25;;;;;;;7.63;6.45;;;14.50;85.30;;;;;;5038334;28;20508;-74
2023/05/31 01:31:52;;;;;;;7.88;6.50;;;14.50;85.70;;;;;;5044150;28;20504;-74
2023/05/31 01:34:19;;;;;;;7.15;6.45;;;14.40;85.60;;;;;;5046743;28;20420;-74
2023/05/31 01:36:45;;;;;;;8.15;7.00;;;14.40;85.70;;;;;;5045738;28;20776;-74
2023/05/31 01:39:12;;;;;;;7.93;7.07;;;14.40;85.50;;;;;;5045377;28;20437;-73
2023/05/31 01:41:41;;;;;;;7.20;6.50;;;14.30;85.80;;;;;;5046147;28;20895;-74
2023/05/31 01:44:11;;;;;;;7.32;6.53;;;14.30;86.10;;;;;;5045597;28;20429;-74
2023/05/31 01:46:38;;;;;;;7.45;6.75;;;14.30;86.60;;;;;;5044513;28;20437;-74
2023/05/31 01:49:05;;;;;;;7.63;6.93;;;14.30;86.50;;;;;;5045696;28;20421;-74
2023/05/31 01:51:33;;;;;;;7.30;6.32;;;14.20;86.60;;;;;;5046150;28;20772;-74
2023/05/31 01:54:00;;;;;;;9.05;6.70;;;14.20;87.00;;;;;;5045755;28;20440;-74
2023/05/31 01:56:29;;;;;;;7.30;6.60;;;14.20;87.30;;;;;;5045394;28;20433;-74
2023/05/31 01:58:57;;;;;;;7.40;6.70;;;14.20;87.50;;;;;;5043340;28;20783;-74
2023/05/31 02:01:26;;;;;;;8.13;6.60;;;14.20;87.60;;;;;;5043086;28;20425;-74
2023/05/31 02:03:53;;;;;;;7.00;6.30;;;14.20;87.70;;;;;;5045994;28;20939;-74
2023/05/31 02:06:20;;;;;;;8.05;7.15;;;14.20;87.80;;;;;;5043821;28;20463;-74
2023/05/31 02:08:47;;;;;;;7.80;6.80;;;14.20;87.80;;;;;;5045836;28;20572;-75
2023/05/31 02:11:14;;;;;;;8.00;6.60;;;14.20;88.10;;;;;;5046012;28;20428;-74
2023/05/31 02:13:41;;;;;;;7.13;6.43;;;14.20;88.20;;;;;;5044011;28;20437;-75
2023/05/31 02:16:08;;;;;;;8.48;6.05;;;14.20;88.20;;;;;;5040908;28;20444;-75
2023/05/31 02:18:36;;;;;;;7.20;6.53;;;14.20;88.20;;;;;;5045847;28;20839;-73
2023/05/31 02:21:05;;;;;;;7.50;6.22;;;14.20;87.90;;;;;;5046588;28;20624;-73
2023/05/31 02:23:32;;;;;;;7.47;6.78;;;14.10;87.40;;;;;;5046519;28;20417;-73
2023/05/31 02:25:59;;;;;;;7.40;6.60;;;14.00;88.30;;;;;;5045101;28;20441;-75
2023/05/31 02:28:26;;;;;;;8.00;7.20;;;14.00;87.60;;;;;;5044958;28;20786;-74
2023/05/31 02:30:56;;;;;;;7.25;6.40;;;13.90;88.30;;;;;;5043417;28;20444;-73
2023/05/31 02:33:23;;;;;;;8.60;6.68;;;13.90;88.70;;;;;;5038544;28;20445;-72
2023/05/31 02:35:51;;;;;;;7.05;6.35;;;13.90;88.90;;;;;;5045229;28;20448;-73
2023/05/31 02:38:20;;;;;;;8.18;7.05;;;13.90;89.50;;;;;;5045533;28;20421;-73
2023/05/31 02:40:46;;;;;;;8.95;7.40;;;13.90;89.60;;;;;;5044817;28;20485;-73
2023/05/31 02:43:13;;;;;;;7.75;6.95;;;13.90;89.40;;;;;;5044951;28;20432;-73
2023/05/31 02:45:40;;;;;;;7.87;6.80;;;13.90;89.70;;;;;;5043891;28;20489;-73
2023/05/31 02:48:07;;;;;;;7.73;6.80;;;13.90;90.00;;;;;;5045548;28;20520;-73
2023/05/31 02:50:34;;;;;;;8.65;7.35;;;13.90;89.80;;;;;;5044603;28;20794;-73
2023/05/31 02:53:04;;;;;;;8.55;7.65;;;13.80;89.80;;;;;;5045694;28;20416;-73
2023/05/31 02:55:30;;;;;;;8.35;7.15;;;13.80;90.00;;;;;;5044407;28;20782;-73
2023/05/31 02:57:57;;;;;;;8.20;7.40;;;13.80;90.10;;;;;;5045712;28;20435;-73
2023/05/31 03:00:25;;;;;;;8.40;7.40;;;13.80;90.10;;;;;;5044038;28;20445;-73
2023/05/31 03:02:52;;;;;;;9.05;7.43;;;13.70;90.20;;;;;;5046323;28;20441;-74
2023/05/31 03:05:19;;;;;;;7.88;7.07;;;13.70;90.20;;;;;;5042604;28;20714;-73
2023/05/31 03:07:46;;;;;;;7.47;6.78;;;13.70;90.40;;;;;;5044380;28;20438;-73
2023/05/31 03:10:14;;;;;;;9.23;7.63;;;13.70;90.40;;;;;;5045148;28;20420;-73
2023/05/31 03:12:41;;;;;;;7.85;7.05;;;13.70;90.40;;;;;;5045660;28;20420;-73
2023/05/31 03:15:09;;;;;;;9.15;6.93;;;13.60;90.30;;;;;;5042732;28;20441;-73
2023/05/31 03:17:37;;;;;;;8.70;7.30;;;13.60;90.60;;;;;;5045672;28;20512;-73
2023/05/31 03:20:06;;;;;;;7.90;7.00;;;13.60;90.80;;;;;;5045083;28;20490;-73
2023/05/31 03:22:33;;;;;;;7.68;6.40;;;13.60;90.90;;;;;;5045980;28;20433;-73
2023/05/31 03:25:00;;;;;;;7.57;6.88;;;13.60;90.80;;;;;;5044139;28;20413;-73
2023/05/31 03:27:28;;;;;;;8.40;7.50;;;13.60;90.70;;;;;;5045402;28;20421;-73
2023/05/31 03:29:55;;;;;;;9.07;6.83;;;13.50;90.70;;;;;;5043371;28;20445;-73
2023/05/31 03:32:21;;;;;;;8.43;6.75;;;13.50;90.90;;;;;;5042908;28;20477;-73
2023/05/31 03:34:48;;;;;;;8.75;6.70;;;13.40;90.60;;;;;;5045307;28;20417;-72
2023/05/31 03:37:15;;;;;;;7.80;6.50;;;13.40;90.80;;;;;;5074558;22;20800;-73
2023/05/31 03:39:41;;;;;;;8.75;7.50;;;13.40;90.90;;;;;;5086234;28;20436;-75
2023/05/31 03:42:08;;;;;;;8.90;7.15;;;13.40;91.00;;;;;;5088796;28;20429;-73
2023/05/31 03:44:37;;;;;;;7.80;6.60;;;13.30;91.20;;;;;;5086496;28;20421;-73
2023/05/31 03:47:03;;;;;;;8.60;6.30;;;13.40;91.20;;;;;;5089875;28;20441;-73
2023/05/31 03:49:30;;;;;;;7.50;6.60;;;13.30;91.10;;;;;;5091151;28;20482;-73
2023/05/31 03:51:57;;;;;;;7.17;6.50;;;13.30;91.10;;;;;;5083135;28;20422;-74
2023/05/31 03:54:24;;;;;;;8.13;6.20;;;13.30;91.30;;;;;;5089297;28;20437;-74
2023/05/31 03:56:50;;;;;;;8.60;7.70;;;13.30;91.50;;;;;;5089835;28;20761;-73
2023/05/31 03:59:17;;;;;;;8.00;6.90;;;13.40;91.70;;;;;;5084389;28;20425;-75
2023/05/31 04:01:45;;;;;;;9.07;7.10;;;13.40;91.50;;;;;;5082734;28;20917;-74
2023/05/31 04:04:12;;;;;;;11.75;9.60;;;13.40;91.60;;;;;;5089754;28;20417;-78
2023/05/31 04:06:39;;;;;;;8.20;7.40;;;13.40;91.50;;;;;;5082905;28;20446;-76
2023/05/31 04:09:05;;;;;;;8.00;7.00;;;13.40;91.40;;;;;;5089210;28;20826;-77
2023/05/31 04:11:32;;;;;;;8.45;6.70;;;13.40;91.20;;;;;;5090215;28;20410;-77
2023/05/31 04:13:59;;;;;;;7.45;6.50;;;13.40;91.30;;;;;;5088028;28;20805;-76
2023/05/31 04:16:26;;;;;;;7.32;6.53;;;13.40;91.50;;;;;;5084087;28;20431;-76
2023/05/31 04:18:54;;;;;;;8.50;6.53;;;13.40;91.30;;;;;;5089104;28;20410;-77
2023/05/31 04:21:21;;;;;;;8.20;6.50;;;13.40;91.50;;;;;;5077986;28;20442;-78
2023/05/31 04:23:47;;;;;;;8.07;6.40;;;13.50;91.60;;;;;;5105087;28;20429;-76
2023/05/31 04:26:16;;;;;;;7.18;6.07;;;13.50;91.50;;;;;;5107251;28;20426;-77
2023/05/31 04:28:43;;;;;;;7.95;6.32;;;13.60;91.20;;;;;;5104612;28;20433;-79
2023/05/31 04:31:10;;;;;;;7.43;6.70;;;13.70;90.90;;;;;;5094725;28;20434;-78
2023/05/31 04:33:38;;;;;;;9.03;6.30;;;13.70;90.80;;;;;;5090590;28;20421;-78
2023/05/31 04:36:08;;;;;;;7.72;6.43;;;13.70;90.90;;;;;;5090552;28;20811;-77
2023/05/31 04:38:35;;;;;;;7.40;6.10;;;13.70;90.90;;;;;;5088024;28;20501;-79
2023/05/31 04:41:03;;;;;;;7.65;6.10;;;13.80;90.90;;;;;;5089060;28;20480;-79
2023/05/31 04:43:30;;;;;;;7.55;6.20;;;13.80;90.80;;;;;;5088791;28;20501;-69
2023/05/31 04:45:57;;;;;;;7.32;6.13;;;13.80;90.70;;;;;;5088467;28;20433;-70
2023/05/31 04:48:26;;;;;;;7.40;6.70;;;13.90;90.70;;;;;;5089252;28;20428;-71
2023/05/31 04:50:54;;;;;;;8.13;6.28;;;13.90;90.50;;;;;;5088666;28;20481;-69
2023/05/31 04:53:23;;;;;;;6.30;5.70;;;14.00;90.50;;;;;;5088900;28;20422;-70
2023/05/31 04:55:51;;;;;;;6.00;5.40;;;14.00;90.40;;;;;;5093354;28;20418;-69
2023/05/31 04:58:19;;;;;;;7.32;6.15;;;14.10;90.30;;;;;;5087768;28;20435;-69
2023/05/31 05:00:46;;;;;;;9.77;6.35;;;14.10;90.40;;;;;;5083582;28;20429;-69
2023/05/31 05:03:13;;;;;;;7.70;6.90;;;14.20;90.20;;;;;;5084731;28;20522;-69
2023/05/31 05:05:40;;;;;;;8.63;6.15;;;14.20;89.90;;;;;;5089564;28;20516;-69
2023/05/31 05:08:07;;;;;;;7.00;6.30;;;14.30;89.90;;;;;;5090254;28;20771;-70
2023/05/31 05:10:35;;;;;;;7.47;6.20;;;14.30;89.50;;;;;;5090033;28;20419;-69
2023/05/31 05:13:01;;;;;;;7.07;6.15;;;14.30;89.50;;;;;;5082481;28;20422;-68
2023/05/31 05:15:28;;;;;;;7.03;5.90;;;14.30;89.10;;;;;;5094728;28;20431;-67
2023/05/31 05:17:55;;;;;;;6.60;5.50;;;14.40;88.10;;;;;;5109301;28;20418;-66
2023/05/31 05:20:23;;;;;;;7.70;5.50;;;14.50;87.20;;;;;;5110121;28;20414;-67
2023/05/31 05:22:52;;;;;;;8.55;5.50;;;14.50;86.20;;;;;;5102811;28;20425;-67
2023/05/31 05:25:20;;;;;;;6.80;5.40;;;14.60;85.90;;;;;;5084941;28;20838;-67
2023/05/31 05:27:48;;;;;;;6.93;5.28;;;14.60;85.70;;;;;;5086419;28;20842;-67
2023/05/31 05:30:15;;;;;;;6.37;4.80;;;14.60;84.80;;;;;;5087281;28;20477;-68
2023/05/31 05:32:42;;;;;;;6.45;5.25;;;14.70;84.40;;;;;;5085259;28;20455;-68
2023/05/31 05:35:09;;;;;;;6.05;5.40;;;14.70;83.90;;;;;;5088387;28;20425;-67
2023/05/31 05:37:35;;;;;;;6.80;5.47;;;14.70;84.50;;;;;;5089327;28;20418;-67
2023/05/31 05:40:06;;;;;;;7.57;5.45;;;14.70;83.60;;;;;;5089198;28;20406;-68
2023/05/31 05:42:36;;;;;;;8.02;5.68;;;14.80;83.50;;;;;;5092334;28;20494;-67
2023/05/31 05:45:05;;;;;;;7.95;5.50;;;14.80;83.60;;;;;;5091149;28;20505;-71
2023/05/31 05:47:31;;;;;;;8.02;5.07;;;14.80;84.20;;;;;;5088430;28;20508;-73
2023/05/31 05:49:58;;;;;;;7.05;5.03;;;14.80;83.90;;;;;;5091557;28;20924;-67
2023/05/31 05:52:25;;;;;;;6.45;5.53;;;14.90;84.30;;;;;;5092740;28;20426;-65
2023/05/31 05:54:51;;;;;;;8.38;5.20;;;15.00;83.40;;;;;;5092716;28;20907;-67
2023/05/31 05:57:18;;;;;;;8.37;5.37;;;15.00;82.40;;;;;;5082235;28;20429;-74
2023/05/31 05:59:46;;;;;;;7.15;5.25;;;15.10;82.80;;;;;;5087424;28;20953;-74
2023/05/31 06:02:14;;;;;;;6.93;5.00;;;15.10;83.60;;;;;;5090243;28;20903;-72
2023/05/31 06:04:41;;;;;;;7.82;5.63;;;15.10;84.30;;;;;;5092811;28;20406;-73
2023/05/31 06:07:08;;;;;;;6.50;5.80;;;15.10;83.90;;;;;;5093721;28;20416;-73
2023/05/31 06:09:35;;;;;;;6.80;4.70;;;15.20;82.40;;;;;;5089596;28;20436;-74
2023/05/31 06:12:01;;;;;;;6.00;4.70;;;15.30;81.90;;;;;;5097180;28;20799;-73
2023/05/31 06:14:28;;;;;;;7.00;4.68;;;15.30;82.00;;;;;;5100300;28;20428;-72
2023/05/31 06:16:55;;;;;;;5.63;4.97;;;15.40;81.50;;;;;;5095950;28;20803;-74
2023/05/31 06:19:23;;;;;;;9.23;5.22;;;15.50;81.50;;;;;;5095520;28;20436;-73
2023/05/31 06:21:50;;;;;;;6.65;4.90;;;15.50;81.70;;;;;;5085264;28;20447;-73
2023/05/31 06:24:16;;;;;;;8.02;5.32;;;15.60;81.00;;;;;;5096544;28;20426;-72
2023/05/31 06:26:43;;;;;;;7.35;4.75;;;15.70;80.30;;;;;;5088225;28;20430;-74
2023/05/31 06:29:10;;;;;;;6.28;4.70;;;15.80;79.60;;;;;;5088257;28;20452;-74
2023/05/31 06:31:38;;;;;;;6.80;4.60;;;15.80;79.10;;;;;;5090961;28;20559;-74
2023/05/31 06:34:05;;;;;;;6.30;4.78;;;15.90;78.80;;;;;;5088231;28;20449;-74
2023/05/31 06:36:33;;;;;;;6.93;5.00;;;16.00;78.30;;;;;;5078415;28;20442;-74
2023/05/31 06:39:00;;;;;;;7.05;4.30;;;16.10;77.90;;;;;;5092231;28;20428;-75
2023/05/31 06:41:28;;;;;;;5.65;4.22;;;16.20;77.50;;;;;;5087880;28;20442;-74
2023/05/31 06:43:54;;;;;;;7.97;4.30;;;16.30;76.40;;;;;;5088918;28;20444;-73
2023/05/31 06:46:21;;;;;;;8.68;5.10;;;16.40;74.80;;;;;;5088698;28;20432;-74
2023/05/31 06:48:48;;;;;;;7.18;4.43;;;16.50;73.80;;;;;;5089421;28;20441;-74
2023/05/31 06:51:17;;;;;;;6.65;4.43;;;16.60;73.70;;;;;;5089715;28;20882;-73
2023/05/31 06:53:45;;;;;;;6.40;4.38;;;16.70;73.50;;;;;;5090805;28;20425;-73
2023/05/31 06:56:12;;;;;;;5.80;4.70;;;16.80;73.20;;;;;;5091551;28;20880;-71
2023/05/31 06:58:40;;;;;;;7.30;4.25;;;17.00;72.10;;;;;;5090777;28;20436;-72
2023/05/31 07:01:07;;;;;;;6.80;4.07;;;17.20;71.90;;;;;;5083380;28;20535;-73
2023/05/31 07:03:34;;;;;;;5.97;4.35;;;17.30;71.80;;;;;;5092427;28;20429;-72
2023/05/31 07:06:01;;;;;;;5.47;4.20;;;17.40;69.80;;;;;;5093358;28;20421;-72
2023/05/31 07:08:28;;;;;;;6.03;3.40;;;17.50;69.30;;;;;;5093735;28;20441;-71
2023/05/31 07:10:56;;;;;;;4.82;3.85;;;17.60;68.40;;;;;;5096728;28;20597;-72
2023/05/31 07:13:23;;;;;;;5.03;3.92;;;17.80;68.00;;;;;;5094153;28;21034;-71
2023/05/31 07:15:50;;;;;;;5.50;3.65;;;18.00;67.40;;;;;;5088022;28;20493;-65
2023/05/31 07:18:16;;;;;;;4.53;3.47;;;18.20;66.80;;;;;;5090405;28;20414;-68
2023/05/31 07:20:43;;;;;;;4.68;3.35;;;18.40;66.30;;;;;;5088638;28;20429;-67
2023/05/31 07:23:10;;;;;;;4.45;3.35;;;18.70;65.30;;;;;;5088026;28;20465;-67
2023/05/31 07:25:37;;;;;;;4.35;3.25;;;18.90;63.60;;;;;;5089856;28;20721;-67
2023/05/31 07:28:05;;;;;;;4.35;3.00;;;19.10;62.90;;;;;;5085831;28;20430;-68
2023/05/31 07:30:32;;;;;;;4.80;3.38;;;19.40;61.40;;;;;;5086810;28;20430;-68
2023/05/31 07:32:58;;;;;;;5.40;3.25;;;19.50;60.60;;;;;;5088089;28;20437;-69
2023/05/31 07:35:25;;;;;;;4.18;3.17;;;19.70;59.20;;;;;;5089231;28;20923;-68
2023/05/31 07:37:52;;;;;;;5.20;3.00;;;19.90;58.70;;;;;;5088343;28;20426;-70
2023/05/31 07:40:19;;;;;;;4.67;3.30;;;20.00;59.30;;;;;;5091398;28;20422;-69
2023/05/31 07:42:45;;;;;;;4.35;3.10;;;20.10;57.60;;;;;;5098490;28;20425;-68
2023/05/31 07:45:13;;;;;;;4.60;2.90;;;20.30;55.90;;;;;;5087106;28;20429;-69
2023/05/31 07:47:40;;;;;;;3.20;2.90;;;20.40;56.10;;;;;;5090604;28;20424;-69
2023/05/31 07:50:08;;;;;;;3.85;2.55;;;20.50;55.10;;;;;;5090240;28;20432;-68
2023/05/31 07:52:35;;;;;;;4.50;3.42;;;20.60;53.50;;;;;;5084363;28;20437;-69
2023/05/31 07:55:02;;;;;;;3.95;3.20;;;20.70;54.10;;;;;;5086924;28;20473;-69
2023/05/31 07:57:29;;;;;;;3.73;2.80;;;20.80;51.70;;;;;;5088102;28;20434;-69
2023/05/31 07:59:56;;;;;;;4.97;3.20;;;21.00;51.80;;;;;;5095521;28;20807;-69
2023/05/31 08:02:24;;;;;;;4.97;2.80;;;21.10;51.90;;;;;;5089527;28;20464;-68
2023/05/31 08:04:51;;;;;;;5.60;3.15;;;21.30;50.60;;;;;;5086593;28;20425;-75
2023/05/31 08:07:17;;;;;;;4.22;3.00;;;21.40;49.90;;;;;;5092990;28;20417;-75
2023/05/31 08:09:44;;;;;;;5.22;3.40;;;21.50;49.40;;;;;;5089282;28;20425;-75
2023/05/31 08:12:11;;;;;;;4.30;2.70;;;21.70;48.50;;;;;;5087956;28;20429;-74
2023/05/31 08:14:38;;;;;;;3.95;2.70;;;21.90;49.90;;;;;;5088044;28;20497;-76
2023/05/31 08:17:05;;;;;;;5.50;2.80;;;22.00;47.90;;;;;;5089125;28;20413;-75
2023/05/31 08:19:33;;;;;;;5.05;3.03;;;22.10;47.10;;;;;;5089612;28;20406;-74
2023/05/31 08:22:00;;;;;;;4.53;2.40;;;22.30;45.80;;;;;;5089986;28;20416;-75
2023/05/31 08:24:27;;;;;;;3.65;2.60;;;22.30;47.30;;;;;;5089244;28;20426;-75
2023/05/31 08:26:55;;;;;;;3.40;2.58;;;22.40;44.50;;;;;;5088827;28;20429;-76
2023/05/31 08:29:22;;;;;;;2.97;2.30;;;22.50;43.30;;;;;;5081194;28;20885;-75
2023/05/31 08:31:49;;;;;;;3.10;2.40;;;22.60;42.70;;;;;;5089529;28;20794;-74
2023/05/31 08:34:16;;;;;;;4.10;2.70;;;22.70;42.80;;;;;;5090162;28;20406;-74
2023/05/31 08:36:44;;;;;;;4.40;2.30;;;22.80;43.10;;;;;;5089645;28;20444;-75
2023/05/31 08:39:11;;;;;;;2.72;2.30;;;22.90;42.90;;;;;;5089721;28;20849;-76
2023/05/31 08:41:46;;;;;;;4.10;2.42;;;23.10;42.50;;;;;;5085074;28;20428;-75
2023/05/31 08:44:15;;;;;;;4.43;2.20;;;23.20;42.90;;;;;;5089951;28;20429;-75
2023/05/31 08:46:44;;;;;;;2.95;2.20;;;23.40;40.40;;;;;;5089720;28;20422;-77
2023/05/31 08:49:11;;;;;;;4.53;2.30;;;23.30;41.80;;;;;;5088065;28;20530;-75
2023/05/31 08:51:40;;;;;;;3.25;2.33;;;23.30;39.60;;;;;;5086850;28;20938;-75
2023/05/31 08:54:10;;;;;;;4.00;2.10;;;23.40;38.70;;;;;;5083006;28;20409;-76
2023/05/31 08:56:38;;;;;;;2.95;2.05;;;23.50;39.10;;;;;;5099504;28;20430;-74
2023/05/31 08:59:10;;;;;;;3.60;2.30;;;23.70;37.90;;;;;;5104031;28;20410;-78
2023/05/31 09:01:38;;;;;;;4.30;2.30;;;23.80;38.10;;;;;;5103962;28;20520;-79
2023/05/31 09:04:05;;;;;;;3.90;2.20;;;24.00;37.00;;;;;;5104066;28;20425;-77
2023/05/31 09:06:31;;;;;;;2.67;2.10;;;24.20;37.30;;;;;;5107483;28;20410;-77
2023/05/31 09:08:59;;;;;;;3.13;2.15;;;24.30;37.90;;;;;;5098383;28;20442;-78
2023/05/31 09:11:27;;;;;;;2.90;2.10;;;24.30;37.20;;;;;;5105441;28;20453;-78
2023/05/31 09:13:54;;;;;;;3.70;2.17;;;24.40;35.80;;;;;;5109086;28;20871;-74
2023/05/31 09:16:22;;;;;;;2.88;1.75;;;24.50;34.90;;;;;;5096302;28;20494;-75
2023/05/31 09:18:49;;;;;;;2.90;1.83;;;24.60;33.00;;;;;;5099599;28;20409;-76
2023/05/31 09:21:16;;;;;;;2.80;2.17;;;24.80;33.40;;;;;;5101489;28;20441;-77
2023/05/31 09:23:53;;;;;;;3.13;2.03;;;24.90;34.00;;;;;;5096557;28;20425;-75
2023/05/31 09:26:20;;;;;;;2.33;1.90;;;25.00;32.40;;;;;;5109179;28;20486;-76
2023/05/31 09:28:50;;;;;;;2.08;1.80;;;25.00;31.30;;;;;;5108542;28;20442;-77
2023/05/31 09:31:18;;;;;;;2.67;2.03;;;25.20;31.50;;;;;;5106550;28;20398;-79
2023/05/31 09:33:47;;;;;;;2.30;2.10;;;25.30;31.50;;;;;;5114834;28;20398;-78
2023/05/31 09:36:14;;;;;;;2.50;1.80;;;25.40;32.10;;;;;;5117173;28;20408;-76
2023/05/31 09:38:41;;;;;;;2.40;1.80;;;25.50;31.60;;;;;;5066332;22;20438;-69
2023/05/31 09:41:16;;;;;;;2.20;1.67;;;25.70;31.10;;;;;;5030008;28;20422;-68
2023/05/31 09:43:44;;;;;;;3.30;1.80;;;25.90;30.50;;;;;;5025837;28;20480;-69
2023/05/31 09:46:16;;;;;;;3.17;2.15;;;26.00;31.00;;;;;;5031092;28;20935;-69
2023/05/31 09:48:44;;;;;;;3.13;1.90;;;26.00;31.40;;;;;;5018280;28;20414;-67
2023/05/31 09:51:13;;;;;;;2.45;1.88;;;26.00;30.00;;;;;;5030754;28;20418;-70
2023/05/31 09:53:41;;;;;;;3.08;1.80;;;26.10;30.40;;;;;;5030422;28;20434;-69
2023/05/31 09:56:17;;;;;;;2.25;1.80;;;26.10;31.00;;;;;;5030962;28;20429;-69
2023/05/31 09:58:44;;;;;;;3.67;2.50;;;26.30;30.80;;;;;;5029368;28;20446;-69
2023/05/31 10:01:11;;;;;;;2.65;2.03;;;26.50;30.00;;;;;;5030424;28;20431;-68
2023/05/31 10:03:40;;;;;;;3.00;1.60;;;26.70;29.50;;;;;;5035619;28;20933;-68
2023/05/31 10:06:08;;;;;;;2.77;1.70;;;26.80;29.50;;;;;;5032937;28;20434;-70
2023/05/31 10:08:35;;;;;;;2.33;2.13;;;27.00;30.00;;;;;;5029398;28;21051;-69
2023/05/31 10:11:02;;;;;;;2.10;1.90;;;27.10;29.40;;;;;;5028916;28;20512;-70
2023/05/31 10:13:30;;;;;;;2.27;1.77;;;27.20;29.40;;;;;;5029277;28;20534;-70
2023/05/31 10:15:58;;;;;;;2.00;1.70;;;27.30;29.20;;;;;;5018912;28;20442;-70
2023/05/31 10:18:29;;;;;;;2.90;1.60;;;27.20;29.80;;;;;;5028854;28;20435;-68
2023/05/31 10:21:03;;;;;;;2.65;1.67;;;27.20;30.80;;;;;;5028093;28;20458;-71
2023/05/31 10:23:35;;;;;;;3.17;1.88;;;27.00;29.80;;;;;;5028672;28;20522;-72
2023/05/31 10:26:13;;;;;;;7.72;2.00;;;27.00;29.90;;;;;;5029865;28;20423;-70
2023/05/31 10:28:46;;;;;;;3.23;1.90;;;27.20;29.60;;;;;;5026317;28;20595;-71
2023/05/31 10:31:15;;;;;;;4.85;2.00;;;27.30;28.70;;;;;;5036285;28;20828;-72
2023/05/31 10:33:48;;;;;;;2.70;1.80;;;27.50;29.00;;;;;;5032084;28;20469;-72
2023/05/31 10:36:18;;;;;;;2.25;1.80;;;27.70;28.80;;;;;;5029262;28;20551;-71
2023/05/31 10:38:53;;;;;;;3.28;1.80;;;27.80;28.50;;;;;;5028069;28;20509;-71
2023/05/31 10:41:23;;;;;;;2.20;1.67;;;27.90;28.10;;;;;;5030537;28;20421;-72
2023/05/31 10:43:55;;;;;;;2.63;1.80;;;28.00;28.20;;;;;;5029723;28;20504;-72
2023/05/31 10:46:27;;;;;;;2.90;1.60;;;28.10;28.30;;;;;;5025046;28;20419;-72
2023/05/31 10:48:56;;;;;;;2.90;1.80;;;28.10;27.90;;;;;;5030421;28;20485;-71
2023/05/31 10:54:21;;;;;;;2.65;1.70;;;28.10;28.00;;;;;;5080673;27;20382;-73
2023/05/31 10:56:54;;;;;;;2.08;1.63;;;28.40;27.60;;;;;;5081372;28;20789;-73
2023/05/31 10:59:21;;;;;;;2.70;1.95;;;28.40;27.40;;;;;;5081802;28;20431;-72
2023/05/31 11:01:48;;;;;;;2.22;2.03;;;28.50;27.40;;;;;;5071714;28;20813;-73
2023/05/31 11:04:22;;;;;;;2.00;1.60;;;28.50;27.00;;;;;;5084906;28;20834;-72
2023/05/31 11:06:52;;;;;;;2.90;1.50;;;28.40;27.10;;;;;;5078169;28;20432;-72
2023/05/31 11:09:21;;;;;;;2.00;1.48;;;28.50;27.20;;;;;;5081013;28;20435;-71
2023/05/31 11:11:49;;;;;;;2.75;1.90;;;28.60;27.10;;;;;;5085477;28;20423;-71
2023/05/31 11:14:28;;;;;;;2.83;1.70;;;28.70;27.70;;;;;;5081787;28;20433;-71
2023/05/31 11:17:15;;;;;;;3.10;1.50;;;28.80;26.70;;;;;;5076986;28;20443;-72
2023/05/31 11:19:43;;;;;;;2.17;1.60;;;28.90;26.20;;;;;;5071885;28;20423;-70
2023/05/31 11:22:11;;;;;;;1.60;1.47;;;29.10;26.30;;;;;;5072250;28;21030;-70
2023/05/31 11:24:40;;;;;;;2.80;1.70;;;29.20;26.10;;;;;;5078028;28;20512;-70
2023/05/31 11:27:12;;;;;;;2.10;1.50;;;29.40;25.70;;;;;;5069155;28;20427;-69
2023/05/31 11:29:59;;;;;;;2.20;1.42;;;29.60;25.70;;;;;;5076563;28;20431;-69
2023/05/31 11:32:58;;;;;;;1.75;1.17;;;29.60;25.70;;;;;;5080831;28;20423;-70
2023/05/31 11:35:25;;;;;;;2.50;1.58;;;29.60;26.00;;;;;;5082232;28;20446;-70
2023/05/31 11:38:04;;;;;;;1.93;1.60;;;29.50;25.70;;;;;;5074522;28;20477;-70
2023/05/31 11:40:35;;;;;;;3.67;1.83;;;29.50;26.00;;;;;;5077784;28;20423;-72
2023/05/31 11:43:07;;;;;;;2.10;1.90;;;29.70;26.20;;;;;;5081767;28;20423;-71
2023/05/31 11:45:34;;;;;;;2.63;1.40;;;29.70;26.40;;;;;;5082701;28;20426;-70
2023/05/31 11:48:26;;;;;;;2.05;1.65;;;29.80;25.90;;;;;;5084365;28;20506;-68
2023/05/31 11:50:55;;;;;;;2.60;1.50;;;30.00;24.50;;;;;;5078220;28;20814;-70
2023/05/31 11:53:22;;;;;;;3.20;1.50;;;30.20;24.70;;;;;;5092569;28;20421;-68
2023/05/31 11:55:50;;;;;;;2.45;1.30;;;30.20;25.60;;;;;;5104752;28;20413;-69
2023/05/31 11:58:21;;;;;;;1.40;1.30;;;30.20;25.30;;;;;;5099103;28;20422;-69
2023/05/31 12:00:47;;;;;;;2.28;1.33;;;30.20;25.00;;;;;;5096270;28;20488;-69
2023/05/31 12:03:20;;;;;;;2.58;1.50;;;30.30;24.90;;;;;;5099665;28;20433;-72
2023/05/31 12:05:51;;;;;;;2.30;1.50;;;30.50;25.50;;;;;;5085403;28;20450;-69
2023/05/31 12:08:18;;;;;;;2.22;1.40;;;30.60;24.60;;;;;;5085297;28;20434;-69
2023/05/31 12:10:46;;;;;;;3.20;1.70;;;30.70;24.10;;;;;;5087581;28;20434;-69
2023/05/31 12:13:17;;;;;;;1.40;1.23;;;30.80;24.50;;;;;;5077966;28;20431;-69
2023/05/31 12:15:51;;;;;;;1.83;1.40;;;30.90;23.70;;;;;;5079324;28;20944;-69
2023/05/31 12:18:17;;;;;;;1.10;1.00;;;31.00;23.40;;;;;;5083578;28;20441;-69
2023/05/31 12:20:45;;;;;;;1.80;1.50;;;31.20;24.80;;;;;;5078052;28;20433;-70
2023/05/31 12:23:12;;;;;;;2.72;1.50;;;31.30;24.90;;;;;;5087000;28;20427;-69
2023/05/31 12:25:45;;;;;;;3.90;1.55;;;31.40;25.10;;;;;;5084468;28;20429;-70
2023/05/31 12:28:12;;;;;;;2.28;1.40;;;31.50;24.90;;;;;;5073675;28;20864;-70
2023/05/31 12:30:44;;;;;;;2.10;1.50;;;31.40;24.60;;;;;;5078380;28;20435;-71
2023/05/31 12:33:11;;;;;;;1.65;1.40;;;31.30;24.50;;;;;;5080794;28;20426;-71
2023/05/31 12:35:42;;;;;;;2.35;1.40;;;31.40;24.60;;;;;;5085050;28;20595;-70
2023/05/31 12:38:09;;;;;;;4.30;1.40;;;31.40;24.30;;;;;;5089096;28;20910;-71
2023/05/31 12:40:39;;;;;;;3.10;1.50;;;31.40;24.60;;;;;;5090313;28;20507;-70
2023/05/31 12:43:06;;;;;;;1.98;1.52;;;31.60;24.60;;;;;;5083515;28;20423;-71
2023/05/31 12:45:33;;;;;;;1.90;1.42;;;31.80;24.10;;;;;;5079954;28;20701;-70
2023/05/31 12:48:02;;;;;;;2.15;1.40;;;32.00;24.20;;;;;;5081162;28;20439;-71
2023/05/31 12:50:29;;;;;;;1.90;1.50;;;32.30;24.90;;;;;;5087052;28;20437;-71
2023/05/31 12:52:57;;;;;;;1.60;1.35;;;32.50;23.40;;;;;;5088816;28;20429;-70
2023/05/31 12:55:24;;;;;;;1.57;1.30;;;33.00;23.50;;;;;;5088182;28;20545;-71
2023/05/31 12:57:52;;;;;;;2.80;1.50;;;33.30;23.90;;;;;;5082136;28;20518;-70